x

Aberporth (03502) Weather Station

1:00 - Fri 24th Feb 2017 All times are GMT.

  • Wind
    29mph, 37mph gusts
  • Aire Temp 41°f
  • Sea Pressure 1013mb
  • Aberporth
  • Aberporth

More Historic Weather Station data

Upgrade to MSW Pro to gain access to the past 30 days of data for over 8000 Wavebouys and Weather Stations around the globe.

Join Pro

Comparision Forecast

View Surf forecast
   
vie 02/24 1:00 29 37 mph 1013mb 41f
12:00 28 39 mph 1012mb 41f
jue 02/23 11:00 29 40 mph 1011mb 42f
10:00 31 41 mph 1010mb 42f
9:00 29 45 mph 1009mb 42f
8:00 34 45 mph 1008mb 42f
7:00 30 49 mph 1007mb 43f
6:00 34 44 mph 1005mb 42f
5:00 34 46 mph 1004mb 42f
4:00 34 52 mph 1003mb 45f
3:00 34 49 mph 1001mb 45f
2:00 34 51 mph 1000mb 46f
1:00 36 54 mph 999mb 45f
12:00 40 60 mph 998mb 45f
mié 02/22 11:00 30 40 mph 1009mb 49f
10:00 30 40 mph 1009mb 49f
9:00 31 40 mph 1009mb 49f
8:00 33 44 mph 1009mb 49f
7:00 33 46 mph 1008mb 49f
6:00 32 41 mph 1009mb 49f
5:00 32 45 mph 1009mb 49f
4:00 33 45 mph 1009mb 49f
3:00 33 47 mph 1010mb 49f
2:00 37 49 mph 1010mb 50f
1:00 38 52 mph 1010mb 50f
12:00 37 48 mph 1010mb 50f
mar 02/21 11:00 36 52 mph 1011mb 50f
10:00 36 48 mph 1011mb 51f
9:00 34 46 mph 1011mb 51f
8:00 31 41 mph 1011mb 50f
7:00 23 39 mph 1012mb 51f
6:00 30 47 mph 1012mb 50f
5:00 23 39 mph 1013mb 51f
4:00 29 44 mph 1013mb 50f
3:00 28 39 mph 1014mb 51f
2:00 29 38 mph 1015mb 50f
1:00 28 39 mph 1016mb 50f
12:00 29 39 mph 1016mb 50f
11:00 24 32 mph 1017mb 50f
10:00 24 33 mph 1017mb 49f
9:00 23 32 mph 1016mb 49f
8:00 23 31 mph 1017mb 49f
7:00 21 31 mph 1017mb 49f
6:00 24 33 mph 1017mb 49f
5:00 25 33 mph 1017mb 49f
4:00 23 31 mph 1017mb 49f
3:00 23 33 mph 1018mb 49f
2:00 24 33 mph 1018mb 49f
1:00 24 33 mph 1019mb 49f
12:00 22 30 mph 1019mb 51f
lun 02/20 11:00 22 29 mph 1019mb 50f
10:00 19
mph
1020mb 50f
9:00 21 30 mph 1019mb 51f
8:00 23 33 mph 1019mb 51f
7:00 24 37 mph 1020mb 52f
6:00 28 36 mph 1019mb 52f
5:00 25 36 mph 1019mb 52f
4:00 26 37 mph 1019mb 52f
3:00 25 36 mph 1019mb 53f
2:00 26 39 mph 1019mb 53f
1:00 31 38 mph 1020mb 54f
12:00 21 34 mph 1020mb 54f
11:00 23 32 mph 1020mb 55f
8:00 25 36 mph 1021mb 49f
7:00 16
mph
1020mb 49f
6:00 13
mph
1020mb 49f
5:00 22 29 mph 1021mb 51f
4:00 23
mph
1020mb 51f
3:00 16
mph
1021mb 51f
2:00 18
mph
1021mb 52f